sensor_id;sensor_type;location;lat;lon;timestamp;temperature;humidity
1686;DHT22;840;47.980;7.830;2022-10-03T00:01:35;14.60;99.90
1686;DHT22;840;47.980;7.830;2022-10-03T00:04:15;14.60;99.90
1686;DHT22;840;47.980;7.830;2022-10-03T00:06:50;14.60;99.90
1686;DHT22;840;47.980;7.830;2022-10-03T00:09:35;14.60;99.90
1686;DHT22;840;47.980;7.830;2022-10-03T00:12:13;14.60;99.90
1686;DHT22;840;47.980;7.830;2022-10-03T00:14:50;14.60;99.90
1686;DHT22;840;47.980;7.830;2022-10-03T00:17:23;14.50;99.90
1686;DHT22;840;47.980;7.830;2022-10-03T00:19:57;14.60;99.90
1686;DHT22;840;47.980;7.830;2022-10-03T00:22:34;14.50;99.90
1686;DHT22;840;47.980;7.830;2022-10-03T00:25:16;14.50;99.90
1686;DHT22;840;47.980;7.830;2022-10-03T00:27:47;14.50;99.90
1686;DHT22;840;47.980;7.830;2022-10-03T00:30:19;14.50;99.90
1686;DHT22;840;47.980;7.830;2022-10-03T00:33:06;14.50;99.90
1686;DHT22;840;47.980;7.830;2022-10-03T00:35:54;14.40;99.90
1686;DHT22;840;47.980;7.830;2022-10-03T00:38:52;14.50;99.90
1686;DHT22;840;47.980;7.830;2022-10-03T00:44:44;14.40;99.90
1686;DHT22;840;47.980;7.830;2022-10-03T00:47:34;14.40;99.90
1686;DHT22;840;47.980;7.830;2022-10-03T00:53:21;14.30;99.90
1686;DHT22;840;47.980;7.830;2022-10-03T00:56:16;14.40;99.90
1686;DHT22;840;47.980;7.830;2022-10-03T00:58:55;14.40;99.90
1686;DHT22;840;47.980;7.830;2022-10-03T01:01:32;14.40;99.90
1686;DHT22;840;47.980;7.830;2022-10-03T01:04:23;14.40;99.90
1686;DHT22;840;47.980;7.830;2022-10-03T01:07:01;14.40;99.90
1686;DHT22;840;47.980;7.830;2022-10-03T01:09:37;14.50;99.90
1686;DHT22;840;47.980;7.830;2022-10-03T01:12:24;14.50;99.90
1686;DHT22;840;47.980;7.830;2022-10-03T01:15:08;14.60;99.90
1686;DHT22;840;47.980;7.830;2022-10-03T01:17:44;14.60;99.90
1686;DHT22;840;47.980;7.830;2022-10-03T01:20:25;14.60;99.90
1686;DHT22;840;47.980;7.830;2022-10-03T01:26:18;14.60;99.90
1686;DHT22;840;47.980;7.830;2022-10-03T01:28:52;14.60;99.90
1686;DHT22;840;47.980;7.830;2022-10-03T01:31:43;14.50;99.90
1686;DHT22;840;47.980;7.830;2022-10-03T01:34:18;14.50;99.90
1686;DHT22;840;47.980;7.830;2022-10-03T01:36:55;14.40;99.90
1686;DHT22;840;47.980;7.830;2022-10-03T01:39:33;14.40;99.90
1686;DHT22;840;47.980;7.830;2022-10-03T01:42:07;14.40;99.90
1686;DHT22;840;47.980;7.830;2022-10-03T01:44:44;14.40;99.90
1686;DHT22;840;47.980;7.830;2022-10-03T01:47:23;14.40;99.90
1686;DHT22;840;47.980;7.830;2022-10-03T01:49:57;14.50;99.90
1686;DHT22;840;47.980;7.830;2022-10-03T01:52:32;14.50;99.90
1686;DHT22;840;47.980;7.830;2022-10-03T01:55:05;14.60;99.90
1686;DHT22;840;47.980;7.830;2022-10-03T01:57:37;14.60;99.90
1686;DHT22;840;47.980;7.830;2022-10-03T02:00:11;14.70;99.90
1686;DHT22;840;47.980;7.830;2022-10-03T02:02:43;14.70;99.90
1686;DHT22;840;47.980;7.830;2022-10-03T02:05:16;14.70;99.90
1686;DHT22;840;47.980;7.830;2022-10-03T02:07:51;14.70;99.90
1686;DHT22;840;47.980;7.830;2022-10-03T02:10:27;14.70;99.90
1686;DHT22;840;47.980;7.830;2022-10-03T02:13:04;14.70;99.90
1686;DHT22;840;47.980;7.830;2022-10-03T02:15:43;14.70;99.90
1686;DHT22;840;47.980;7.830;2022-10-03T02:18:19;14.60;99.90
1686;DHT22;840;47.980;7.830;2022-10-03T02:20:52;14.60;99.90
1686;DHT22;840;47.980;7.830;2022-10-03T02:23:24;14.60;99.90
1686;DHT22;840;47.980;7.830;2022-10-03T02:25:59;14.50;99.90
1686;DHT22;840;47.980;7.830;2022-10-03T02:28:53;14.40;99.90
1686;DHT22;840;47.980;7.830;2022-10-03T02:31:45;14.30;99.90
1686;DHT22;840;47.980;7.830;2022-10-03T02:34:23;14.30;99.90
1686;DHT22;840;47.980;7.830;2022-10-03T02:37:14;14.20;99.90
1686;DHT22;840;47.980;7.830;2022-10-03T02:39:59;14.10;99.90
1686;DHT22;840;47.980;7.830;2022-10-03T02:42:37;14.10;99.90
1686;DHT22;840;47.980;7.830;2022-10-03T02:52:09;13.90;99.90
1686;DHT22;840;47.980;7.830;2022-10-03T02:54:54;13.90;99.90
1686;DHT22;840;47.980;7.830;2022-10-03T02:57:50;13.90;99.90
1686;DHT22;840;47.980;7.830;2022-10-03T03:00:21;13.80;99.90
1686;DHT22;840;47.980;7.830;2022-10-03T03:06:36;13.80;99.90
1686;DHT22;840;47.980;7.830;2022-10-03T03:09:21;13.70;99.90
1686;DHT22;840;47.980;7.830;2022-10-03T03:12:11;13.70;99.90
1686;DHT22;840;47.980;7.830;2022-10-03T03:15:15;13.70;99.90
1686;DHT22;840;47.980;7.830;2022-10-03T03:18:02;13.60;99.90
1686;DHT22;840;47.980;7.830;2022-10-03T03:20:40;13.60;99.90
1686;DHT22;840;47.980;7.830;2022-10-03T03:23:27;13.60;99.90
1686;DHT22;840;47.980;7.830;2022-10-03T03:26:19;13.70;99.90
1686;DHT22;840;47.980;7.830;2022-10-03T03:28:59;13.70;99.90
1686;DHT22;840;47.980;7.830;2022-10-03T03:31:34;13.70;99.90
1686;DHT22;840;47.980;7.830;2022-10-03T03:34:10;13.70;99.90
1686;DHT22;840;47.980;7.830;2022-10-03T03:36:47;13.60;99.90
1686;DHT22;840;47.980;7.830;2022-10-03T03:39:28;13.70;99.90
1686;DHT22;840;47.980;7.830;2022-10-03T03:42:19;13.70;99.90
1686;DHT22;840;47.980;7.830;2022-10-03T03:48:03;13.60;99.90
1686;DHT22;840;47.980;7.830;2022-10-03T03:50:45;13.60;99.90
1686;DHT22;840;47.980;7.830;2022-10-03T03:53:39;13.60;99.90
1686;DHT22;840;47.980;7.830;2022-10-03T03:56:28;13.60;99.90
1686;DHT22;840;47.980;7.830;2022-10-03T03:59:06;13.70;99.90
1686;DHT22;840;47.980;7.830;2022-10-03T04:01:51;13.70;99.90
1686;DHT22;840;47.980;7.830;2022-10-03T04:04:33;13.60;99.90
1686;DHT22;840;47.980;7.830;2022-10-03T04:07:10;13.60;99.90
1686;DHT22;840;47.980;7.830;2022-10-03T04:10:02;13.60;99.90
1686;DHT22;840;47.980;7.830;2022-10-03T04:12:46;13.50;99.90
1686;DHT22;840;47.980;7.830;2022-10-03T04:18:31;13.50;99.90
1686;DHT22;840;47.980;7.830;2022-10-03T04:21:29;13.60;99.90
1686;DHT22;840;47.980;7.830;2022-10-03T04:24:18;13.60;99.90
1686;DHT22;840;47.980;7.830;2022-10-03T04:27:02;13.60;99.90
1686;DHT22;840;47.980;7.830;2022-10-03T04:29:44;13.60;99.90
1686;DHT22;840;47.980;7.830;2022-10-03T04:32:26;13.60;99.90
1686;DHT22;840;47.980;7.830;2022-10-03T04:35:12;13.50;99.90
1686;DHT22;840;47.980;7.830;2022-10-03T04:37:46;13.50;99.90
1686;DHT22;840;47.980;7.830;2022-10-03T04:40:26;13.40;99.90
1686;DHT22;840;47.980;7.830;2022-10-03T04:43:03;13.30;99.90
1686;DHT22;840;47.980;7.830;2022-10-03T04:45:59;13.30;99.90
1686;DHT22;840;47.980;7.830;2022-10-03T04:48:36;13.30;99.90
1686;DHT22;840;47.980;7.830;2022-10-03T04:51:09;13.30;99.90
1686;DHT22;840;47.980;7.830;2022-10-03T04:53:46;13.40;99.90
1686;DHT22;840;47.980;7.830;2022-10-03T04:56:33;13.40;99.90
1686;DHT22;840;47.980;7.830;2022-10-03T04:59:16;13.40;99.90
1686;DHT22;840;47.980;7.830;2022-10-03T05:01:51;13.40;99.90
1686;DHT22;840;47.980;7.830;2022-10-03T05:04:25;13.40;99.90
1686;DHT22;840;47.980;7.830;2022-10-03T05:07:03;13.30;99.90
1686;DHT22;840;47.980;7.830;2022-10-03T05:09:36;13.30;99.90
1686;DHT22;840;47.980;7.830;2022-10-03T05:12:13;13.30;99.90
1686;DHT22;840;47.980;7.830;2022-10-03T05:15:10;13.30;99.90
1686;DHT22;840;47.980;7.830;2022-10-03T05:17:46;13.40;99.90
1686;DHT22;840;47.980;7.830;2022-10-03T05:20:27;13.40;99.90
1686;DHT22;840;47.980;7.830;2022-10-03T05:23:06;13.40;99.90
1686;DHT22;840;47.980;7.830;2022-10-03T05:25:44;13.40;99.90
1686;DHT22;840;47.980;7.830;2022-10-03T05:28:20;13.50;99.90
1686;DHT22;840;47.980;7.830;2022-10-03T05:30:55;13.50;99.90
1686;DHT22;840;47.980;7.830;2022-10-03T05:33:33;13.50;99.90
1686;DHT22;840;47.980;7.830;2022-10-03T05:36:10;13.50;99.90
1686;DHT22;840;47.980;7.830;2022-10-03T05:38:56;13.50;99.90
1686;DHT22;840;47.980;7.830;2022-10-03T05:41:28;13.50;99.90
1686;DHT22;840;47.980;7.830;2022-10-03T05:44:02;13.50;99.90
1686;DHT22;840;47.980;7.830;2022-10-03T05:46:39;13.40;99.90
1686;DHT22;840;47.980;7.830;2022-10-03T05:52:22;13.40;99.90
1686;DHT22;840;47.980;7.830;2022-10-03T05:55:13;13.40;99.90
1686;DHT22;840;47.980;7.830;2022-10-03T05:58:15;13.40;99.90
1686;DHT22;840;47.980;7.830;2022-10-03T06:01:02;13.30;99.90
1686;DHT22;840;47.980;7.830;2022-10-03T06:03:58;13.20;99.90
1686;DHT22;840;47.980;7.830;2022-10-03T06:06:41;13.20;99.90
1686;DHT22;840;47.980;7.830;2022-10-03T06:09:30;13.20;99.90
1686;DHT22;840;47.980;7.830;2022-10-03T06:12:06;13.10;99.90
1686;DHT22;840;47.980;7.830;2022-10-03T06:17:44;13.00;99.90
1686;DHT22;840;47.980;7.830;2022-10-03T06:26:39;12.80;99.90
1686;DHT22;840;47.980;7.830;2022-10-03T06:29:41;12.80;99.90
1686;DHT22;840;47.980;7.830;2022-10-03T06:32:35;12.80;99.90
1686;DHT22;840;47.980;7.830;2022-10-03T06:35:36;12.70;99.90
1686;DHT22;840;47.980;7.830;2022-10-03T06:47:54;12.80;99.90
1686;DHT22;840;47.980;7.830;2022-10-03T06:50:57;12.90;99.90
1686;DHT22;840;47.980;7.830;2022-10-03T06:53:38;13.00;99.90
1686;DHT22;840;47.980;7.830;2022-10-03T06:56:41;13.00;99.90
1686;DHT22;840;47.980;7.830;2022-10-03T07:02:38;12.70;99.90
1686;DHT22;840;47.980;7.830;2022-10-03T07:06:02;12.70;99.90
1686;DHT22;840;47.980;7.830;2022-10-03T07:15:06;12.80;99.90
1686;DHT22;840;47.980;7.830;2022-10-03T07:17:49;12.90;99.90
1686;DHT22;840;47.980;7.830;2022-10-03T07:20:42;13.00;99.90
1686;DHT22;840;47.980;7.830;2022-10-03T07:23:29;13.00;99.90
1686;DHT22;840;47.980;7.830;2022-10-03T07:29:12;12.80;99.90
1686;DHT22;840;47.980;7.830;2022-10-03T07:31:57;12.80;99.90
1686;DHT22;840;47.980;7.830;2022-10-03T07:35:13;12.90;99.90
1686;DHT22;840;47.980;7.830;2022-10-03T07:38:02;13.00;99.90
1686;DHT22;840;47.980;7.830;2022-10-03T07:44:28;12.90;99.90
1686;DHT22;840;47.980;7.830;2022-10-03T07:47:32;12.90;99.90
1686;DHT22;840;47.980;7.830;2022-10-03T07:53:15;12.90;99.90
1686;DHT22;840;47.980;7.830;2022-10-03T07:55:54;13.00;99.90
1686;DHT22;840;47.980;7.830;2022-10-03T07:58:52;13.00;99.90
1686;DHT22;840;47.980;7.830;2022-10-03T08:04:43;13.20;99.90
1686;DHT22;840;47.980;7.830;2022-10-03T08:07:26;13.10;99.90
1686;DHT22;840;47.980;7.830;2022-10-03T08:10:13;13.00;99.90
1686;DHT22;840;47.980;7.830;2022-10-03T08:12:56;13.10;99.90
1686;DHT22;840;47.980;7.830;2022-10-03T08:15:31;13.10;99.90
1686;DHT22;840;47.980;7.830;2022-10-03T08:18:31;13.10;99.90
1686;DHT22;840;47.980;7.830;2022-10-03T08:21:03;13.10;99.90
1686;DHT22;840;47.980;7.830;2022-10-03T08:27:02;13.20;99.90
1686;DHT22;840;47.980;7.830;2022-10-03T08:33:16;13.40;99.90
1686;DHT22;840;47.980;7.830;2022-10-03T08:36:22;13.40;99.90
1686;DHT22;840;47.980;7.830;2022-10-03T08:39:11;13.40;99.90
1686;DHT22;840;47.980;7.830;2022-10-03T08:42:18;13.40;99.90
1686;DHT22;840;47.980;7.830;2022-10-03T08:45:01;13.50;99.90
1686;DHT22;840;47.980;7.830;2022-10-03T08:50:53;13.70;99.90
1686;DHT22;840;47.980;7.830;2022-10-03T08:53:47;13.80;99.90
1686;DHT22;840;47.980;7.830;2022-10-03T08:56:22;14.00;99.90
1686;DHT22;840;47.980;7.830;2022-10-03T08:59:27;14.10;99.90
1686;DHT22;840;47.980;7.830;2022-10-03T09:05:44;13.70;99.90
1686;DHT22;840;47.980;7.830;2022-10-03T09:08:38;13.60;99.90
1686;DHT22;840;47.980;7.830;2022-10-03T09:14:32;13.70;99.90
1686;DHT22;840;47.980;7.830;2022-10-03T09:17:42;13.80;99.90
1686;DHT22;840;47.980;7.830;2022-10-03T09:20:51;14.00;99.90
1686;DHT22;840;47.980;7.830;2022-10-03T09:23:42;14.20;99.90
1686;DHT22;840;47.980;7.830;2022-10-03T09:26:39;14.40;99.90
1686;DHT22;840;47.980;7.830;2022-10-03T09:32:50;14.70;99.90
1686;DHT22;840;47.980;7.830;2022-10-03T09:35:44;14.90;99.90
1686;DHT22;840;47.980;7.830;2022-10-03T09:38:46;15.00;99.90
1686;DHT22;840;47.980;7.830;2022-10-03T09:41:39;15.20;99.90
1686;DHT22;840;47.980;7.830;2022-10-03T09:44:28;15.10;99.90
1686;DHT22;840;47.980;7.830;2022-10-03T09:47:27;14.90;99.90
1686;DHT22;840;47.980;7.830;2022-10-03T09:56:29;15.10;99.90
1686;DHT22;840;47.980;7.830;2022-10-03T09:59:17;15.20;99.90
1686;DHT22;840;47.980;7.830;2022-10-03T10:01:50;15.30;99.90
1686;DHT22;840;47.980;7.830;2022-10-03T10:07:51;15.40;99.90
1686;DHT22;840;47.980;7.830;2022-10-03T10:10:50;15.40;99.90
1686;DHT22;840;47.980;7.830;2022-10-03T10:16:16;15.30;99.90
1686;DHT22;840;47.980;7.830;2022-10-03T10:19:16;15.30;99.90
1686;DHT22;840;47.980;7.830;2022-10-03T10:22:10;15.30;99.90
1686;DHT22;840;47.980;7.830;2022-10-03T10:25:07;15.30;99.90
1686;DHT22;840;47.980;7.830;2022-10-03T10:28:18;15.40;99.90
1686;DHT22;840;47.980;7.830;2022-10-03T10:34:35;15.70;99.90
1686;DHT22;840;47.980;7.830;2022-10-03T10:40:50;16.10;99.90
1686;DHT22;840;47.980;7.830;2022-10-03T10:43:46;16.20;99.90
1686;DHT22;840;47.980;7.830;2022-10-03T10:46:43;16.30;99.90
1686;DHT22;840;47.980;7.830;2022-10-03T10:52:39;16.40;99.90
1686;DHT22;840;47.980;7.830;2022-10-03T11:02:06;16.10;99.90
1686;DHT22;840;47.980;7.830;2022-10-03T11:11:31;16.10;99.90
1686;DHT22;840;47.980;7.830;2022-10-03T11:14:31;16.40;99.90
1686;DHT22;840;47.980;7.830;2022-10-03T11:27:00;17.00;99.90
1686;DHT22;840;47.980;7.830;2022-10-03T11:30:02;17.00;99.90
1686;DHT22;840;47.980;7.830;2022-10-03T11:38:48;17.20;99.90
1686;DHT22;840;47.980;7.830;2022-10-03T11:41:27;17.10;99.90
1686;DHT22;840;47.980;7.830;2022-10-03T11:47:01;17.10;99.90
1686;DHT22;840;47.980;7.830;2022-10-03T11:49:48;17.20;99.90
1686;DHT22;840;47.980;7.830;2022-10-03T11:52:42;17.20;99.90
1686;DHT22;840;47.980;7.830;2022-10-03T11:55:23;17.20;99.90
1686;DHT22;840;47.980;7.830;2022-10-03T11:57:58;17.10;99.90
1686;DHT22;840;47.980;7.830;2022-10-03T12:00:32;17.10;99.90
1686;DHT22;840;47.980;7.830;2022-10-03T12:03:14;17.10;99.90
1686;DHT22;840;47.980;7.830;2022-10-03T12:05:51;17.00;99.90
1686;DHT22;840;47.980;7.830;2022-10-03T12:08:43;17.10;99.90
1686;DHT22;840;47.980;7.830;2022-10-03T12:11:24;17.10;99.90
1686;DHT22;840;47.980;7.830;2022-10-03T12:14:12;17.10;99.90
1686;DHT22;840;47.980;7.830;2022-10-03T12:16:53;17.10;99.90
1686;DHT22;840;47.980;7.830;2022-10-03T12:19:26;17.10;99.90
1686;DHT22;840;47.980;7.830;2022-10-03T12:21:57;17.10;99.90
1686;DHT22;840;47.980;7.830;2022-10-03T12:24:46;17.20;99.90
1686;DHT22;840;47.980;7.830;2022-10-03T12:27:22;17.20;99.90
1686;DHT22;840;47.980;7.830;2022-10-03T12:29:56;17.20;99.90
1686;DHT22;840;47.980;7.830;2022-10-03T12:32:30;17.30;99.90
1686;DHT22;840;47.980;7.830;2022-10-03T12:35:15;17.40;99.90
1686;DHT22;840;47.980;7.830;2022-10-03T12:38:00;17.40;99.90
1686;DHT22;840;47.980;7.830;2022-10-03T12:40:33;17.20;99.90
1686;DHT22;840;47.980;7.830;2022-10-03T12:43:18;17.10;99.90
1686;DHT22;840;47.980;7.830;2022-10-03T12:45:53;17.00;99.90
1686;DHT22;840;47.980;7.830;2022-10-03T12:48:37;17.10;99.90
1686;DHT22;840;47.980;7.830;2022-10-03T12:51:16;17.00;99.90
1686;DHT22;840;47.980;7.830;2022-10-03T12:53:56;16.90;99.90
1686;DHT22;840;47.980;7.830;2022-10-03T12:56:39;16.90;99.90
1686;DHT22;840;47.980;7.830;2022-10-03T12:59:14;16.90;99.90
1686;DHT22;840;47.980;7.830;2022-10-03T13:04:50;16.90;99.90
1686;DHT22;840;47.980;7.830;2022-10-03T13:07:25;17.00;99.90
1686;DHT22;840;47.980;7.830;2022-10-03T13:10:17;17.20;99.90
1686;DHT22;840;47.980;7.830;2022-10-03T13:12:51;17.30;99.90
1686;DHT22;840;47.980;7.830;2022-10-03T13:15:47;17.40;99.90
1686;DHT22;840;47.980;7.830;2022-10-03T13:21:13;17.70;99.90
1686;DHT22;840;47.980;7.830;2022-10-03T13:23:44;18.00;99.90
1686;DHT22;840;47.980;7.830;2022-10-03T13:26:17;18.10;99.90
1686;DHT22;840;47.980;7.830;2022-10-03T13:29:14;18.20;99.90
1686;DHT22;840;47.980;7.830;2022-10-03T13:32:07;18.30;99.90
1686;DHT22;840;47.980;7.830;2022-10-03T13:34:45;18.00;99.90
1686;DHT22;840;47.980;7.830;2022-10-03T13:37:17;17.90;99.90
1686;DHT22;840;47.980;7.830;2022-10-03T13:39:51;17.80;99.90
1686;DHT22;840;47.980;7.830;2022-10-03T13:42:20;17.90;99.90
1686;DHT22;840;47.980;7.830;2022-10-03T13:44:52;18.00;99.90
1686;DHT22;840;47.980;7.830;2022-10-03T13:47:44;18.10;99.90
1686;DHT22;840;47.980;7.830;2022-10-03T13:50:16;18.10;99.90
1686;DHT22;840;47.980;7.830;2022-10-03T13:52:49;18.20;99.90
1686;DHT22;840;47.980;7.830;2022-10-03T13:55:25;18.10;99.90
1686;DHT22;840;47.980;7.830;2022-10-03T13:58:14;18.10;99.90
1686;DHT22;840;47.980;7.830;2022-10-03T14:01:00;18.00;99.90
1686;DHT22;840;47.980;7.830;2022-10-03T14:03:35;17.90;99.90
1686;DHT22;840;47.980;7.830;2022-10-03T14:06:15;17.80;99.90
1686;DHT22;840;47.980;7.830;2022-10-03T14:11:58;17.60;99.90
1686;DHT22;840;47.980;7.830;2022-10-03T14:14:56;17.60;99.90
1686;DHT22;840;47.980;7.830;2022-10-03T14:17:35;17.40;99.90
1686;DHT22;840;47.980;7.830;2022-10-03T14:20:15;17.40;99.90
1686;DHT22;840;47.980;7.830;2022-10-03T14:22:53;17.40;99.90
1686;DHT22;840;47.980;7.830;2022-10-03T14:25:26;17.50;99.90
1686;DHT22;840;47.980;7.830;2022-10-03T14:27:59;17.50;99.90
1686;DHT22;840;47.980;7.830;2022-10-03T14:30:33;17.40;99.90
1686;DHT22;840;47.980;7.830;2022-10-03T14:33:12;17.40;99.90
1686;DHT22;840;47.980;7.830;2022-10-03T14:35:50;17.30;99.90
1686;DHT22;840;47.980;7.830;2022-10-03T14:38:32;17.30;99.90
1686;DHT22;840;47.980;7.830;2022-10-03T14:41:20;17.40;99.90
1686;DHT22;840;47.980;7.830;2022-10-03T14:43:53;17.50;99.90
1686;DHT22;840;47.980;7.830;2022-10-03T14:46:23;17.40;99.90
1686;DHT22;840;47.980;7.830;2022-10-03T14:48:55;17.40;99.90
1686;DHT22;840;47.980;7.830;2022-10-03T14:51:27;17.50;99.90
1686;DHT22;840;47.980;7.830;2022-10-03T14:53:57;17.50;99.90
1686;DHT22;840;47.980;7.830;2022-10-03T14:56:27;17.60;99.90
1686;DHT22;840;47.980;7.830;2022-10-03T14:58:57;17.80;99.90
1686;DHT22;840;47.980;7.830;2022-10-03T15:01:27;18.00;99.90
1686;DHT22;840;47.980;7.830;2022-10-03T15:03:59;18.20;99.90
1686;DHT22;840;47.980;7.830;2022-10-03T15:06:49;18.40;99.90
1686;DHT22;840;47.980;7.830;2022-10-03T15:09:22;18.40;99.90
1686;DHT22;840;47.980;7.830;2022-10-03T15:11:53;18.40;99.90
1686;DHT22;840;47.980;7.830;2022-10-03T15:14:25;18.30;99.90
1686;DHT22;840;47.980;7.830;2022-10-03T15:16:54;18.30;99.90
1686;DHT22;840;47.980;7.830;2022-10-03T15:19:27;18.40;99.90
1686;DHT22;840;47.980;7.830;2022-10-03T15:22:05;18.30;99.90
1686;DHT22;840;47.980;7.830;2022-10-03T15:24:34;18.20;99.90
1686;DHT22;840;47.980;7.830;2022-10-03T15:27:04;17.90;99.90
1686;DHT22;840;47.980;7.830;2022-10-03T15:29:33;17.80;99.90
1686;DHT22;840;47.980;7.830;2022-10-03T15:32:02;17.80;99.90
1686;DHT22;840;47.980;7.830;2022-10-03T15:34:32;17.80;99.90
1686;DHT22;840;47.980;7.830;2022-10-03T15:37:06;17.70;99.90
1686;DHT22;840;47.980;7.830;2022-10-03T15:39:38;17.70;99.90
1686;DHT22;840;47.980;7.830;2022-10-03T15:42:19;17.70;99.90
1686;DHT22;840;47.980;7.830;2022-10-03T15:44:50;17.60;99.90
1686;DHT22;840;47.980;7.830;2022-10-03T15:47:19;17.40;99.90
1686;DHT22;840;47.980;7.830;2022-10-03T15:49:51;17.30;99.90
1686;DHT22;840;47.980;7.830;2022-10-03T15:52:23;17.30;99.90
1686;DHT22;840;47.980;7.830;2022-10-03T15:54:54;17.30;99.90
1686;DHT22;840;47.980;7.830;2022-10-03T15:57:25;17.30;99.90
1686;DHT22;840;47.980;7.830;2022-10-03T15:59:56;17.20;99.90
1686;DHT22;840;47.980;7.830;2022-10-03T16:02:30;17.20;99.90
1686;DHT22;840;47.980;7.830;2022-10-03T16:05:02;17.30;99.90
1686;DHT22;840;47.980;7.830;2022-10-03T16:07:36;17.30;99.90
1686;DHT22;840;47.980;7.830;2022-10-03T16:10:16;17.20;99.90
1686;DHT22;840;47.980;7.830;2022-10-03T16:12:51;17.30;99.90
1686;DHT22;840;47.980;7.830;2022-10-03T16:15:24;17.30;99.90
1686;DHT22;840;47.980;7.830;2022-10-03T16:18:00;17.20;99.90
1686;DHT22;840;47.980;7.830;2022-10-03T16:20:34;17.10;99.90
1686;DHT22;840;47.980;7.830;2022-10-03T16:23:10;17.10;99.90
1686;DHT22;840;47.980;7.830;2022-10-03T16:25:43;17.10;99.90
1686;DHT22;840;47.980;7.830;2022-10-03T16:28:13;17.10;99.90
1686;DHT22;840;47.980;7.830;2022-10-03T16:30:44;17.00;99.90
1686;DHT22;840;47.980;7.830;2022-10-03T16:33:16;16.90;99.90
1686;DHT22;840;47.980;7.830;2022-10-03T16:35:47;16.90;99.90
1686;DHT22;840;47.980;7.830;2022-10-03T16:38:19;16.90;99.90
1686;DHT22;840;47.980;7.830;2022-10-03T16:40:55;17.00;99.90
1686;DHT22;840;47.980;7.830;2022-10-03T16:43:23;17.00;99.90
1686;DHT22;840;47.980;7.830;2022-10-03T16:45:51;17.00;99.90
1686;DHT22;840;47.980;7.830;2022-10-03T16:48:22;17.00;99.90
1686;DHT22;840;47.980;7.830;2022-10-03T16:51:16;16.90;99.90
1686;DHT22;840;47.980;7.830;2022-10-03T16:53:45;16.80;99.90
1686;DHT22;840;47.980;7.830;2022-10-03T16:56:15;16.80;99.90
1686;DHT22;840;47.980;7.830;2022-10-03T16:58:46;16.80;99.90
1686;DHT22;840;47.980;7.830;2022-10-03T17:01:24;16.90;99.90
1686;DHT22;840;47.980;7.830;2022-10-03T17:03:55;16.90;99.90
1686;DHT22;840;47.980;7.830;2022-10-03T17:06:28;16.80;99.90
1686;DHT22;840;47.980;7.830;2022-10-03T17:08:59;16.80;99.90
1686;DHT22;840;47.980;7.830;2022-10-03T17:11:30;16.80;99.90
1686;DHT22;840;47.980;7.830;2022-10-03T17:14:01;16.80;99.90
1686;DHT22;840;47.980;7.830;2022-10-03T17:16:36;16.70;99.90
1686;DHT22;840;47.980;7.830;2022-10-03T17:19:17;16.70;99.90
1686;DHT22;840;47.980;7.830;2022-10-03T17:21:50;16.60;99.90
1686;DHT22;840;47.980;7.830;2022-10-03T17:24:36;16.60;99.90
1686;DHT22;840;47.980;7.830;2022-10-03T17:27:11;16.60;99.90
1686;DHT22;840;47.980;7.830;2022-10-03T17:29:47;16.60;99.90
1686;DHT22;840;47.980;7.830;2022-10-03T17:32:20;16.60;99.90
1686;DHT22;840;47.980;7.830;2022-10-03T17:34:53;16.60;99.90
1686;DHT22;840;47.980;7.830;2022-10-03T17:37:50;16.60;99.90
1686;DHT22;840;47.980;7.830;2022-10-03T17:40:26;16.50;99.90
1686;DHT22;840;47.980;7.830;2022-10-03T17:42:57;16.50;99.90
1686;DHT22;840;47.980;7.830;2022-10-03T17:45:32;16.40;99.90
1686;DHT22;840;47.980;7.830;2022-10-03T17:48:10;16.40;99.90
1686;DHT22;840;47.980;7.830;2022-10-03T17:50:50;16.40;99.90
1686;DHT22;840;47.980;7.830;2022-10-03T17:53:22;16.40;99.90
1686;DHT22;840;47.980;7.830;2022-10-03T17:55:56;16.20;99.90
1686;DHT22;840;47.980;7.830;2022-10-03T17:58:26;16.20;99.90
1686;DHT22;840;47.980;7.830;2022-10-03T18:01:07;16.20;99.90
1686;DHT22;840;47.980;7.830;2022-10-03T18:03:40;16.10;99.90
1686;DHT22;840;47.980;7.830;2022-10-03T18:06:34;16.00;99.90
1686;DHT22;840;47.980;7.830;2022-10-03T18:09:09;15.90;99.90
1686;DHT22;840;47.980;7.830;2022-10-03T18:11:47;15.80;99.90
1686;DHT22;840;47.980;7.830;2022-10-03T18:14:23;15.70;99.90
1686;DHT22;840;47.980;7.830;2022-10-03T18:17:02;15.70;99.90
1686;DHT22;840;47.980;7.830;2022-10-03T18:19:43;15.60;99.90
1686;DHT22;840;47.980;7.830;2022-10-03T18:22:17;15.60;99.90
1686;DHT22;840;47.980;7.830;2022-10-03T18:25:09;15.60;99.90
1686;DHT22;840;47.980;7.830;2022-10-03T18:28:17;15.60;99.90
1686;DHT22;840;47.980;7.830;2022-10-03T18:30:50;15.50;99.90
1686;DHT22;840;47.980;7.830;2022-10-03T18:33:22;15.50;99.90
1686;DHT22;840;47.980;7.830;2022-10-03T18:35:49;15.50;99.90
1686;DHT22;840;47.980;7.830;2022-10-03T18:38:20;15.40;99.90
1686;DHT22;840;47.980;7.830;2022-10-03T18:40:52;15.40;99.90
1686;DHT22;840;47.980;7.830;2022-10-03T18:43:29;15.30;99.90
1686;DHT22;840;47.980;7.830;2022-10-03T18:46:11;15.30;99.90
1686;DHT22;840;47.980;7.830;2022-10-03T18:49:00;15.20;99.90
1686;DHT22;840;47.980;7.830;2022-10-03T18:51:31;15.20;99.90
1686;DHT22;840;47.980;7.830;2022-10-03T18:54:02;15.10;99.90
1686;DHT22;840;47.980;7.830;2022-10-03T18:56:32;15.10;99.90
1686;DHT22;840;47.980;7.830;2022-10-03T18:59:09;15.00;99.90
1686;DHT22;840;47.980;7.830;2022-10-03T19:01:43;14.90;99.90
1686;DHT22;840;47.980;7.830;2022-10-03T19:04:14;14.90;99.90
1686;DHT22;840;47.980;7.830;2022-10-03T19:06:48;14.80;99.90
1686;DHT22;840;47.980;7.830;2022-10-03T19:09:18;14.80;99.90
1686;DHT22;840;47.980;7.830;2022-10-03T19:11:53;14.80;99.90
1686;DHT22;840;47.980;7.830;2022-10-03T19:14:29;14.70;99.90
1686;DHT22;840;47.980;7.830;2022-10-03T19:17:12;14.70;99.90
1686;DHT22;840;47.980;7.830;2022-10-03T19:19:51;14.60;99.90
1686;DHT22;840;47.980;7.830;2022-10-03T19:22:24;14.50;99.90
1686;DHT22;840;47.980;7.830;2022-10-03T19:24:51;14.40;99.90
1686;DHT22;840;47.980;7.830;2022-10-03T19:27:33;14.40;99.90
1686;DHT22;840;47.980;7.830;2022-10-03T19:30:05;14.30;99.90
1686;DHT22;840;47.980;7.830;2022-10-03T19:32:45;14.30;99.90
1686;DHT22;840;47.980;7.830;2022-10-03T19:35:15;14.30;99.90
1686;DHT22;840;47.980;7.830;2022-10-03T19:37:47;14.30;99.90
1686;DHT22;840;47.980;7.830;2022-10-03T19:40:36;14.20;99.90
1686;DHT22;840;47.980;7.830;2022-10-03T19:43:25;14.20;99.90
1686;DHT22;840;47.980;7.830;2022-10-03T19:46:02;14.20;99.90
1686;DHT22;840;47.980;7.830;2022-10-03T19:48:38;14.20;99.90
1686;DHT22;840;47.980;7.830;2022-10-03T19:51:11;14.10;99.90
1686;DHT22;840;47.980;7.830;2022-10-03T19:53:41;14.10;99.90
1686;DHT22;840;47.980;7.830;2022-10-03T19:56:13;14.00;99.90
1686;DHT22;840;47.980;7.830;2022-10-03T19:58:43;14.00;99.90
1686;DHT22;840;47.980;7.830;2022-10-03T20:01:11;13.90;99.90
1686;DHT22;840;47.980;7.830;2022-10-03T20:03:42;13.90;99.90
1686;DHT22;840;47.980;7.830;2022-10-03T20:06:17;13.80;99.90
1686;DHT22;840;47.980;7.830;2022-10-03T20:08:45;13.80;99.90
1686;DHT22;840;47.980;7.830;2022-10-03T20:11:31;13.70;99.90
1686;DHT22;840;47.980;7.830;2022-10-03T20:14:02;13.70;99.90
1686;DHT22;840;47.980;7.830;2022-10-03T20:16:30;13.70;99.90
1686;DHT22;840;47.980;7.830;2022-10-03T20:19:05;13.70;99.90